Albion, WA (99102)

11:08 PM PDT on October 22, 2014 (GMT -0700)
Barclay Ridge | Change Station
CLOSE
Current Station
Personal Weather Station
Location: Pullman, WA
Elevation: 2644 ft
Nearby Weather Stations

Elev 2644 ft 46.73 °N, 117.21 °W | Updated 14 minutes ago

Rain
Rain
49.6 °F
Feels Like 45 °F
N
13.5
Wind Variable Wind from SE

Today
High -- | Low -- °F
--% Chance of Precip.
Yesterday
High -- | Low -- °F
Precip. -- in
7:16 AM 5:49 PM
Waning Crescent, 0% visible
Pressure 29.85 in
Visibility 7.0 miles
Clouds Overcast 5500 ft
Windchill 45 °F
Dew Point 46 °F
Humidity 86%
Rainfall 0.13 in
Snow Depth Not available.
UV 0 out of 12
Pollen 2.90 out of 12
Air Quality Not available.
Flu Activity Sporadic
METAR KPUW 230553Z AUTO 13012KT 7SM -RA OVC055 11/07 A2984 RMK AO2 SLP106 P0005 60008 T01060067 10161 20106 55000

More Conditions Fewer Conditions

Pressure 29.85 in
Visibility 7.0 miles
Clouds Overcast 5500 ft
Windchill 45 °F
Dew Point 46 °F
Humidity 86%
Rainfall 0.13 in
Snow Depth Not available.
UV 0 out of 12
Pollen 2.90 out of 12
Air Quality Not available.
Flu Activity Sporadic
METAR KPUW 230553Z AUTO 13012KT 7SM -RA OVC055 11/07 A2984 RMK AO2 SLP106 P0005 60008 T01060067 10161 20106 55000

More Conditions Fewer Conditions

10-Day Weather Forecast

Almanac

Astronomy

Oct. 22, 2014 Rise Set
Actual Time 7:16 AM PDT 5:49 PM PDT
Civil Twilight 6:45 AM PDT 6:20 PM PDT
Nautical Twilight 6:10 AM PDT 6:55 PM PDT
Astronomical Twilight 5:35 AM PDT 7:30 PM PDT
Moon 5:58 AM PDT (10/22) 5:21 PM PDT (10/22)
Length of Visible Light 11h 34m
Length of Day
10h 32m
Tomorrow will be 3m 9s shorter.
Waning Crescent, 0% of the Moon is Illuminated
Oct 23
Waning Crescent
Oct 23
New
Oct 30
First Quarter
Nov 6
Full
Nov 14
Last Quarter

Yesterday's Extremes

State Highs State Lows

Community

WunderPhotos

Upload Photos

1,764,194 photos uploaded!

Nearby

Snow Depth

Station Depth Elevation
Sourdough Gulch 0 in 4000 ft
Spruce Springs 1 in 5700 ft
Quartz Peak 1 in 4700 ft
Bunchgrass Meadow 0 in 5000 ft
Moses Mountain 0 in 5300 ft

Earthquake Activity

City Distance Mag. Time & Date
No recent earthquake activity has been reported nearby.
Minimum magnitude displayed is 2.5.

Coastal Water Temperatures

Place Temperature
No Stations Reporting

Nearby Weather Stations